createdAt,value
2023-12-10T00:01:56.037Z,10.76
2023-12-10T00:04:29.283Z,10.73
2023-12-10T00:07:00.678Z,10.96
2023-12-10T00:09:28.878Z,10.65
2023-12-10T00:11:56.747Z,11.16
2023-12-10T00:14:26.791Z,10.82
2023-12-10T00:16:55.086Z,10.73
2023-12-10T00:19:23.151Z,10.65
2023-12-10T00:21:52.439Z,10.70
2023-12-10T00:24:23.158Z,10.68
2023-12-10T00:26:51.778Z,10.77
2023-12-10T00:29:19.745Z,10.91
2023-12-10T00:31:48.921Z,10.66
2023-12-10T00:34:17.188Z,10.59
2023-12-10T00:36:45.191Z,10.66
2023-12-10T00:39:14.464Z,10.54
2023-12-10T00:41:42.471Z,10.54
2023-12-10T00:44:10.306Z,10.56
2023-12-10T00:46:38.230Z,10.71
2023-12-10T00:49:06.301Z,10.54
2023-12-10T00:51:34.360Z,10.77
2023-12-10T00:54:02.285Z,10.60
2023-12-10T00:56:32.971Z,10.47
2023-12-10T00:59:00.894Z,10.77
2023-12-10T01:01:28.996Z,10.74
2023-12-10T01:03:56.895Z,10.93
2023-12-10T01:06:24.820Z,10.82
2023-12-10T01:08:52.737Z,10.47
2023-12-10T01:11:20.654Z,10.47
2023-12-10T01:13:50.052Z,10.55
2023-12-10T01:16:18.504Z,10.51
2023-12-10T01:18:48.475Z,10.62
2023-12-10T01:21:16.643Z,10.48
2023-12-10T01:23:44.520Z,10.54
2023-12-10T01:26:14.452Z,10.66
2023-12-10T01:28:42.675Z,10.91
2023-12-10T01:31:11.950Z,10.74
2023-12-10T01:33:40.122Z,10.64
2023-12-10T01:36:09.299Z,10.77
2023-12-10T01:38:37.277Z,10.98
2023-12-10T01:41:05.582Z,10.77
2023-12-10T01:43:33.360Z,10.80
2023-12-10T01:46:01.229Z,10.74
2023-12-10T01:48:31.306Z,10.78
2023-12-10T01:51:00.247Z,11.23
2023-12-10T01:53:28.117Z,10.74
2023-12-10T01:55:56.176Z,10.91
2023-12-10T01:58:24.898Z,10.77
2023-12-10T02:00:52.894Z,10.83
2023-12-10T02:03:20.874Z,11.06
2023-12-10T02:05:50.288Z,10.92
2023-12-10T02:08:18.302Z,11.08
2023-12-10T02:10:46.575Z,10.85
2023-12-10T02:13:14.680Z,10.42
2023-12-10T02:15:42.607Z,9.84
2023-12-10T02:18:10.604Z,9.62
2023-12-10T02:20:38.614Z,9.38
2023-12-10T02:23:13.606Z,9.31
2023-12-10T02:25:43.224Z,9.02
2023-12-10T02:28:12.822Z,8.89
2023-12-10T02:30:41.060Z,8.42
2023-12-10T02:33:09.130Z,8.53
2023-12-10T02:35:37.065Z,8.44
2023-12-10T02:38:05.626Z,8.13
2023-12-10T02:40:33.734Z,7.24
2023-12-10T02:43:03.992Z,7.70
2023-12-10T02:45:32.630Z,9.12
2023-12-10T02:48:00.595Z,8.28
2023-12-10T02:50:28.670Z,8.17
2023-12-10T02:52:56.849Z,8.31
2023-12-10T02:55:24.750Z,8.49
2023-12-10T02:57:52.613Z,9.08
2023-12-10T03:00:22.057Z,8.63
2023-12-10T03:02:50.113Z,8.63
2023-12-10T03:05:18.041Z,8.82
2023-12-10T03:07:46.068Z,8.82
2023-12-10T03:10:13.959Z,8.99
2023-12-10T03:12:41.857Z,8.86
2023-12-10T03:15:10.199Z,9.09
2023-12-10T03:17:39.788Z,9.02
2023-12-10T03:20:10.658Z,9.04
2023-12-10T03:22:38.616Z,9.15
2023-12-10T03:25:07.350Z,9.04
2023-12-10T03:27:36.009Z,9.18
2023-12-10T03:30:04.640Z,9.30
2023-12-10T03:32:32.765Z,9.12
2023-12-10T03:35:02.092Z,9.25
2023-12-10T03:37:29.961Z,9.25
2023-12-10T03:39:57.923Z,9.39
2023-12-10T03:42:25.963Z,9.24
2023-12-10T03:44:54.019Z,9.36
2023-12-10T03:47:21.856Z,9.36
2023-12-10T03:49:49.990Z,9.79
2023-12-10T03:52:19.287Z,9.77
2023-12-10T03:54:47.120Z,9.63
2023-12-10T03:57:15.089Z,9.86
2023-12-10T03:59:43.107Z,9.85
2023-12-10T04:02:11.052Z,9.72
2023-12-10T04:04:38.890Z,9.72
2023-12-10T04:07:06.943Z,9.89
2023-12-10T04:09:36.402Z,9.89
2023-12-10T04:12:06.315Z,10.16
2023-12-10T04:14:34.170Z,10.03
2023-12-10T04:17:02.028Z,9.61
2023-12-10T04:19:30.709Z,9.56
2023-12-10T04:21:58.724Z,10.11
2023-12-10T04:24:26.758Z,9.85
2023-12-10T04:26:56.075Z,9.85
2023-12-10T04:29:23.918Z,9.91
2023-12-10T04:31:51.782Z,10.01
2023-12-10T04:34:20.621Z,10.26
2023-12-10T04:36:48.902Z,10.07
2023-12-10T04:39:17.749Z,10.02
2023-12-10T04:41:45.601Z,10.37
2023-12-10T04:44:14.901Z,10.12
2023-12-10T04:46:42.918Z,9.99
2023-12-10T04:49:10.960Z,10.09
2023-12-10T04:51:39.044Z,10.29
2023-12-10T04:54:07.000Z,10.19
2023-12-10T04:56:34.954Z,9.88
2023-12-10T04:59:02.876Z,10.26
2023-12-10T05:01:32.209Z,10.26
2023-12-10T05:04:00.364Z,10.03
2023-12-10T05:06:28.434Z,10.30
2023-12-10T05:08:56.424Z,10.37
2023-12-10T05:11:24.426Z,9.87
2023-12-10T05:13:52.333Z,9.93
2023-12-10T05:16:20.206Z,10.46
2023-12-10T05:18:49.546Z,10.18
2023-12-10T05:21:17.469Z,10.02
2023-12-10T05:23:45.355Z,10.05
2023-12-10T05:26:13.348Z,10.15
2023-12-10T05:28:41.193Z,9.93
2023-12-10T05:31:09.392Z,9.94
2023-12-10T05:33:37.365Z,9.88
2023-12-10T05:36:07.343Z,10.14
2023-12-10T05:38:35.250Z,9.83
2023-12-10T05:41:03.620Z,9.80
2023-12-10T05:43:31.530Z,9.92
2023-12-10T05:45:59.508Z,9.92
2023-12-10T05:48:29.074Z,9.75
2023-12-10T05:50:57.172Z,9.96
2023-12-10T05:53:26.396Z,10.00
2023-12-10T05:55:54.279Z,9.96
2023-12-10T05:58:22.233Z,10.01
2023-12-10T06:00:50.192Z,9.85
2023-12-10T06:03:18.278Z,9.87
2023-12-10T06:05:46.242Z,9.98
2023-12-10T06:08:14.241Z,9.88
2023-12-10T06:10:43.973Z,9.80
2023-12-10T06:13:11.943Z,9.82
2023-12-10T06:15:39.809Z,10.02
2023-12-10T06:18:07.989Z,10.05
2023-12-10T06:20:36.871Z,10.05
2023-12-10T06:23:04.936Z,10.26
2023-12-10T06:25:32.879Z,9.90
2023-12-10T06:28:02.123Z,10.08
2023-12-10T06:30:30.093Z,10.16
2023-12-10T06:32:58.417Z,9.91
2023-12-10T06:35:26.310Z,10.08
2023-12-10T06:37:54.233Z,10.31
2023-12-10T06:40:22.173Z,10.04
2023-12-10T06:42:50.124Z,10.00
2023-12-10T06:45:20.918Z,10.31
2023-12-10T06:47:48.790Z,10.35
2023-12-10T06:50:16.867Z,10.01
2023-12-10T06:52:44.700Z,10.24
2023-12-10T06:55:12.895Z,10.09
2023-12-10T06:57:40.808Z,9.87
2023-12-10T07:00:10.523Z,9.92
2023-12-10T07:02:38.913Z,10.11
2023-12-10T07:05:07.707Z,9.99
2023-12-10T07:07:38.491Z,10.24
2023-12-10T07:10:07.425Z,10.20
2023-12-10T07:12:35.513Z,9.93
2023-12-10T07:15:03.455Z,10.02
2023-12-10T07:17:31.565Z,9.84
2023-12-10T07:20:00.988Z,9.99
2023-12-10T07:22:29.359Z,10.17
2023-12-10T07:24:58.300Z,9.89
2023-12-10T07:27:26.540Z,10.01
2023-12-10T07:29:54.424Z,10.03
2023-12-10T07:32:22.505Z,10.09
2023-12-10T07:34:50.532Z,10.05
2023-12-10T07:37:19.977Z,10.26
2023-12-10T07:39:48.193Z,9.92
2023-12-10T07:42:16.280Z,10.00
2023-12-10T07:44:44.320Z,10.30
2023-12-10T07:47:13.180Z,10.04
2023-12-10T07:49:41.849Z,9.98
2023-12-10T07:52:09.975Z,10.03
2023-12-10T07:54:39.993Z,9.99
2023-12-10T07:57:09.554Z,10.11
2023-12-10T07:59:37.579Z,10.12
2023-12-10T08:02:05.738Z,10.21
2023-12-10T08:04:33.959Z,10.06
2023-12-10T08:07:02.389Z,10.06
2023-12-10T08:09:31.108Z,10.11
2023-12-10T08:12:00.811Z,10.23
2023-12-10T08:14:29.746Z,10.13
2023-12-10T08:16:58.671Z,10.08
2023-12-10T08:19:26.679Z,10.10
2023-12-10T08:21:54.563Z,9.98
2023-12-10T08:24:22.700Z,10.28
2023-12-10T08:26:50.719Z,9.97
2023-12-10T08:29:20.114Z,9.94
2023-12-10T08:31:48.066Z,10.02
2023-12-10T08:34:15.973Z,10.04
2023-12-10T08:36:44.013Z,10.09
2023-12-10T08:39:12.160Z,10.02
2023-12-10T08:41:40.072Z,10.47
2023-12-10T08:44:08.668Z,10.86
2023-12-10T08:46:38.114Z,10.47
2023-12-10T08:49:06.187Z,10.42
2023-12-10T08:51:34.198Z,9.55
2023-12-10T08:54:02.044Z,9.92
2023-12-10T08:56:30.577Z,10.13
2023-12-10T08:58:58.513Z,9.92
2023-12-10T09:01:26.884Z,10.01
2023-12-10T09:03:56.491Z,10.12
2023-12-10T09:06:24.767Z,9.69
2023-12-10T09:08:52.997Z,9.88
2023-12-10T09:11:21.095Z,9.76
2023-12-10T09:13:49.101Z,10.06
2023-12-10T09:16:17.721Z,10.39
2023-12-10T09:18:46.079Z,10.26
2023-12-10T09:21:15.535Z,10.57
2023-12-10T09:23:44.657Z,10.20
2023-12-10T09:26:12.615Z,10.45
2023-12-10T09:28:40.618Z,10.39
2023-12-10T09:31:08.563Z,10.27
2023-12-10T09:33:36.664Z,10.33
2023-12-10T09:36:04.962Z,10.62
2023-12-10T09:38:34.585Z,10.36
2023-12-10T09:41:02.559Z,10.30
2023-12-10T09:43:30.479Z,10.43
2023-12-10T09:45:58.469Z,10.42
2023-12-10T09:48:26.743Z,10.25
2023-12-10T09:50:54.923Z,10.39
2023-12-10T09:53:23.385Z,10.47
2023-12-10T09:55:52.652Z,10.52
2023-12-10T09:58:20.598Z,10.58
2023-12-10T10:00:48.627Z,10.45
2023-12-10T10:03:16.974Z,10.69
2023-12-10T10:05:45.010Z,10.61
2023-12-10T10:08:13.076Z,10.86
2023-12-10T10:10:41.406Z,10.78
2023-12-10T10:13:10.811Z,10.37
2023-12-10T10:15:38.918Z,10.57
2023-12-10T10:18:08.448Z,10.52
2023-12-10T10:20:36.388Z,10.45
2023-12-10T10:23:05.237Z,10.70
2023-12-10T10:25:36.520Z,10.59
2023-12-10T10:28:10.942Z,10.89
2023-12-10T10:30:39.165Z,10.88
2023-12-10T10:33:07.235Z,10.88
2023-12-10T10:35:38.002Z,10.92
2023-12-10T10:38:07.907Z,11.10
2023-12-10T10:40:35.760Z,11.16
2023-12-10T10:43:04.460Z,11.38
2023-12-10T10:45:35.099Z,10.94
2023-12-10T10:48:03.803Z,11.26
2023-12-10T10:50:31.920Z,10.94
2023-12-10T10:53:01.933Z,11.08
2023-12-10T10:55:30.121Z,11.10
2023-12-10T10:57:58.254Z,10.89
2023-12-10T11:00:38.447Z,10.92
2023-12-10T11:03:09.720Z,11.10
2023-12-10T11:05:38.877Z,10.89
2023-12-10T11:08:07.832Z,10.83
2023-12-10T11:10:36.707Z,11.17
2023-12-10T11:13:04.749Z,10.95
2023-12-10T11:15:32.957Z,11.31
2023-12-10T11:18:07.997Z,11.38
2023-12-10T11:20:40.113Z,11.05
2023-12-10T11:23:09.489Z,11.19
2023-12-10T11:25:38.011Z,11.38
2023-12-10T11:28:11.748Z,11.48
2023-12-10T11:30:40.646Z,11.87
2023-12-10T11:33:15.147Z,11.24
2023-12-10T11:35:44.022Z,11.55
2023-12-10T11:38:12.014Z,11.37
2023-12-10T11:40:40.066Z,11.20
2023-12-10T11:43:09.260Z,11.45
2023-12-10T11:45:38.111Z,11.31
2023-12-10T11:48:07.064Z,11.69
2023-12-10T11:50:37.739Z,11.32
2023-12-10T11:53:06.443Z,11.45
2023-12-10T11:55:34.800Z,11.51
2023-12-10T11:58:02.842Z,11.87
2023-12-10T12:00:30.890Z,11.84
2023-12-10T12:02:58.871Z,11.80
2023-12-10T12:05:26.805Z,12.20
2023-12-10T12:07:56.100Z,11.77
2023-12-10T12:10:24.078Z,11.66
2023-12-10T12:12:52.129Z,11.86
2023-12-10T12:15:20.142Z,11.61
2023-12-10T12:17:48.146Z,12.96
2023-12-10T12:20:20.199Z,13.62
2023-12-10T12:22:49.436Z,12.86
2023-12-10T12:25:19.541Z,13.03
2023-12-10T12:27:47.977Z,12.84
2023-12-10T12:30:17.888Z,12.56
2023-12-10T12:32:46.046Z,12.71
2023-12-10T12:35:14.128Z,11.65
2023-12-10T12:37:42.022Z,11.27
2023-12-10T12:40:11.761Z,11.87
2023-12-10T12:42:41.144Z,11.59
2023-12-10T12:45:10.066Z,11.66
2023-12-10T12:47:38.081Z,12.13
2023-12-10T12:50:07.690Z,11.99
2023-12-10T12:52:36.510Z,12.71
2023-12-10T12:55:04.862Z,12.18
2023-12-10T12:57:33.200Z,12.52
2023-12-10T13:00:02.634Z,11.82
2023-12-10T13:02:30.498Z,11.51
2023-12-10T13:04:58.613Z,12.13
2023-12-10T13:07:26.740Z,12.99
2023-12-10T13:09:54.793Z,12.50
2023-12-10T13:12:23.033Z,12.53
2023-12-10T13:14:51.860Z,12.98
2023-12-10T13:17:21.448Z,12.42
2023-12-10T13:19:49.496Z,12.44
2023-12-10T13:22:17.563Z,12.13
2023-12-10T13:24:46.882Z,12.50
2023-12-10T13:27:14.855Z,12.24
2023-12-10T13:29:42.774Z,11.99
2023-12-10T13:32:11.069Z,12.20
2023-12-10T13:34:40.741Z,12.15
2023-12-10T13:37:09.852Z,12.10
2023-12-10T13:39:37.929Z,11.96
2023-12-10T13:42:06.170Z,11.97
2023-12-10T13:44:34.109Z,12.28
2023-12-10T13:47:02.375Z,12.33
2023-12-10T13:49:30.327Z,12.55
2023-12-10T13:51:59.901Z,12.23
2023-12-10T13:54:28.130Z,12.11
2023-12-10T13:56:56.072Z,12.45
2023-12-10T13:59:24.264Z,12.71
2023-12-10T14:01:52.490Z,12.58
2023-12-10T14:04:20.429Z,12.76
2023-12-10T14:06:48.458Z,13.14
2023-12-10T14:09:17.675Z,12.81
2023-12-10T14:11:45.943Z,12.50
2023-12-10T14:14:16.961Z,12.84
2023-12-10T14:16:46.884Z,12.35
2023-12-10T14:19:15.323Z,12.74
2023-12-10T14:21:43.487Z,12.39
2023-12-10T14:24:12.574Z,12.53
2023-12-10T14:26:42.129Z,12.37
2023-12-10T14:29:10.082Z,12.30
2023-12-10T14:31:38.093Z,12.32
2023-12-10T14:34:06.640Z,12.14
2023-12-10T14:36:35.295Z,12.28
2023-12-10T14:39:03.796Z,12.09
2023-12-10T14:41:31.715Z,12.46
2023-12-10T14:44:01.079Z,12.40
2023-12-10T14:46:29.719Z,12.63
2023-12-10T14:48:57.764Z,11.99
2023-12-10T14:51:25.828Z,12.30
2023-12-10T14:53:53.786Z,11.99
2023-12-10T14:56:21.855Z,12.47
2023-12-10T14:58:49.725Z,12.21
2023-12-10T15:01:19.293Z,12.02
2023-12-10T15:03:47.337Z,11.79
2023-12-10T15:06:15.294Z,12.02
2023-12-10T15:08:43.260Z,11.97
2023-12-10T15:11:11.341Z,12.07
2023-12-10T15:13:39.807Z,11.82
2023-12-10T15:16:09.285Z,11.98
2023-12-10T15:18:38.742Z,12.23
2023-12-10T15:21:06.940Z,12.01
2023-12-10T15:23:34.856Z,12.07
2023-12-10T15:26:03.464Z,11.97
2023-12-10T15:28:33.037Z,12.31
2023-12-10T15:31:01.273Z,12.52
2023-12-10T15:33:29.566Z,12.33
2023-12-10T15:35:58.815Z,12.14
2023-12-10T15:38:26.887Z,11.72
2023-12-10T15:40:54.883Z,11.84
2023-12-10T15:43:22.800Z,11.97
2023-12-10T15:45:50.933Z,12.26
2023-12-10T15:48:18.964Z,12.25
2023-12-10T15:50:47.775Z,11.89
2023-12-10T15:53:17.211Z,12.13
2023-12-10T15:55:45.047Z,12.14
2023-12-10T15:58:13.412Z,12.25
2023-12-10T16:00:41.542Z,12.22
2023-12-10T16:03:10.062Z,12.20
2023-12-10T16:05:38.033Z,11.97
2023-12-10T16:08:06.326Z,12.25
2023-12-10T16:10:35.615Z,12.28
2023-12-10T16:13:03.633Z,12.30
2023-12-10T16:15:31.610Z,12.33
2023-12-10T16:17:59.602Z,12.01
2023-12-10T16:20:27.703Z,11.97
2023-12-10T16:22:55.736Z,12.42
2023-12-10T16:25:23.645Z,11.86
2023-12-10T16:27:53.093Z,12.38
2023-12-10T16:30:24.953Z,11.99
2023-12-10T16:32:54.416Z,12.31
2023-12-10T16:35:22.316Z,12.08
2023-12-10T16:37:50.258Z,11.64
2023-12-10T16:40:18.394Z,11.47
2023-12-10T16:42:46.590Z,11.44
2023-12-10T16:45:15.867Z,11.69
2023-12-10T16:47:44.220Z,11.62
2023-12-10T16:50:13.247Z,11.10
2023-12-10T16:52:41.297Z,11.23
2023-12-10T16:55:13.404Z,10.96
2023-12-10T16:57:42.443Z,11.30
2023-12-10T17:00:12.763Z,12.02
2023-12-10T17:02:43.541Z,11.14
2023-12-10T17:05:13.319Z,11.26
2023-12-10T17:07:41.482Z,11.31
2023-12-10T17:10:10.062Z,11.29
2023-12-10T17:12:39.144Z,11.01
2023-12-10T17:15:08.730Z,11.32
2023-12-10T17:17:36.668Z,11.50
2023-12-10T17:20:07.807Z,11.16
2023-12-10T17:22:35.956Z,11.18
2023-12-10T17:25:04.045Z,11.05
2023-12-10T17:27:32.306Z,11.29
2023-12-10T17:30:00.423Z,11.14
2023-12-10T17:32:28.467Z,11.64
2023-12-10T17:34:56.415Z,11.96
2023-12-10T17:37:25.744Z,12.12
2023-12-10T17:39:53.613Z,11.84
2023-12-10T17:42:21.575Z,11.46
2023-12-10T17:44:54.430Z,11.90
2023-12-10T17:47:25.358Z,11.30
2023-12-10T17:49:53.779Z,11.35
2023-12-10T17:52:21.967Z,11.65
2023-12-10T17:54:51.419Z,11.44
2023-12-10T17:57:19.356Z,11.79
2023-12-10T17:59:47.297Z,11.32
2023-12-10T18:02:15.381Z,12.08
2023-12-10T18:04:43.369Z,11.51
2023-12-10T18:07:11.360Z,11.11
2023-12-10T18:09:39.318Z,11.66
2023-12-10T18:12:09.707Z,10.87
2023-12-10T18:14:37.714Z,11.35
2023-12-10T18:17:06.150Z,11.58
2023-12-10T18:19:34.291Z,11.04
2023-12-10T18:22:02.334Z,11.30
2023-12-10T18:24:30.360Z,11.34
2023-12-10T18:26:58.331Z,11.47
2023-12-10T18:29:28.848Z,11.73
2023-12-10T18:31:57.734Z,11.95
2023-12-10T18:34:26.378Z,12.16
2023-12-10T18:36:54.718Z,12.23
2023-12-10T18:39:22.803Z,11.98
2023-12-10T18:41:50.786Z,12.18
2023-12-10T18:44:18.749Z,12.32
2023-12-10T18:46:47.958Z,12.69
2023-12-10T18:49:15.946Z,12.58
2023-12-10T18:51:44.589Z,12.49
2023-12-10T18:54:12.473Z,12.47
2023-12-10T18:56:40.380Z,12.46
2023-12-10T18:59:08.286Z,11.91
2023-12-10T19:01:36.276Z,12.13
2023-12-10T19:04:06.876Z,12.03
2023-12-10T19:06:34.881Z,11.97
2023-12-10T19:09:04.794Z,12.49
2023-12-10T19:11:32.869Z,12.19
2023-12-10T19:14:01.177Z,12.13
2023-12-10T19:16:29.013Z,11.95
2023-12-10T19:18:58.191Z,12.30
2023-12-10T19:21:27.617Z,12.25
2023-12-10T19:23:56.072Z,11.95
2023-12-10T19:26:24.309Z,11.84
2023-12-10T19:28:53.208Z,11.92
2023-12-10T19:31:24.825Z,12.18
2023-12-10T19:33:53.566Z,12.16
2023-12-10T19:36:22.029Z,12.13
2023-12-10T19:38:51.252Z,12.19
2023-12-10T19:41:19.188Z,12.82
2023-12-10T19:43:47.438Z,12.32
2023-12-10T19:46:15.445Z,12.42
2023-12-10T19:48:43.814Z,12.56
2023-12-10T19:51:11.900Z,12.69
2023-12-10T19:53:40.747Z,12.42
2023-12-10T19:56:11.793Z,12.58
2023-12-10T19:58:39.965Z,12.58
2023-12-10T20:01:08.218Z,12.48
2023-12-10T20:03:36.475Z,12.56
2023-12-10T20:06:04.803Z,12.82
2023-12-10T20:08:33.605Z,12.38
2023-12-10T20:11:01.676Z,12.94
2023-12-10T20:13:31.098Z,12.75
2023-12-10T20:15:59.591Z,12.60
2023-12-10T20:18:29.378Z,12.61
2023-12-10T20:20:58.062Z,12.98
2023-12-10T20:23:25.951Z,12.63
2023-12-10T20:25:55.777Z,12.79
2023-12-10T20:28:24.484Z,12.89
2023-12-10T20:30:55.256Z,13.23
2023-12-10T20:33:23.526Z,13.25
2023-12-10T20:35:51.534Z,13.04
2023-12-10T20:38:19.619Z,12.99
2023-12-10T20:40:49.905Z,13.00
2023-12-10T20:43:19.386Z,12.98
2023-12-10T20:45:47.456Z,12.65
2023-12-10T20:48:17.433Z,12.63
2023-12-10T20:50:45.445Z,12.94
2023-12-10T20:53:14.366Z,12.86
2023-12-10T20:55:42.286Z,13.03
2023-12-10T20:58:13.288Z,13.19
2023-12-10T21:00:41.654Z,13.32
2023-12-10T21:03:10.888Z,12.67
2023-12-10T21:05:40.497Z,12.62
2023-12-10T21:08:08.619Z,12.41
2023-12-10T21:10:36.820Z,12.08
2023-12-10T21:13:05.000Z,11.81
2023-12-10T21:15:33.048Z,11.45
2023-12-10T21:18:01.162Z,11.73
2023-12-10T21:20:29.234Z,11.64
2023-12-10T21:22:58.548Z,11.18
2023-12-10T21:25:26.436Z,10.76
2023-12-10T21:27:54.460Z,10.96
2023-12-10T21:30:22.404Z,10.89
2023-12-10T21:32:50.326Z,11.27
2023-12-10T21:35:18.279Z,11.31
2023-12-10T21:37:46.137Z,11.52
2023-12-10T21:40:15.980Z,11.58
2023-12-10T21:42:43.913Z,11.81
2023-12-10T21:45:12.651Z,11.70
2023-12-10T21:47:40.705Z,11.59
2023-12-10T21:50:09.683Z,11.99
2023-12-10T21:52:37.644Z,11.74
2023-12-10T21:55:06.012Z,11.70
2023-12-10T21:57:35.444Z,11.66
2023-12-10T22:00:03.981Z,11.61
2023-12-10T22:02:40.812Z,11.61
2023-12-10T22:05:09.892Z,11.69
2023-12-10T22:07:38.206Z,11.54
2023-12-10T22:10:08.939Z,11.73
2023-12-10T22:12:38.344Z,11.54
2023-12-10T22:15:07.182Z,11.55
2023-12-10T22:17:35.311Z,11.63
2023-12-10T22:20:04.460Z,11.45
2023-12-10T22:22:33.417Z,11.52
2023-12-10T22:25:01.412Z,11.32
2023-12-10T22:27:29.775Z,11.07
2023-12-10T22:29:59.211Z,11.08
2023-12-10T22:32:27.078Z,11.31
2023-12-10T22:34:54.998Z,11.33
2023-12-10T22:37:23.302Z,11.20
2023-12-10T22:39:51.738Z,11.15
2023-12-10T22:42:19.659Z,11.33
2023-12-10T22:44:47.640Z,11.19
2023-12-10T22:47:16.939Z,11.13
2023-12-10T22:49:46.354Z,11.06
2023-12-10T22:52:14.657Z,10.81
2023-12-10T22:54:42.598Z,10.39
2023-12-10T22:57:10.591Z,10.32
2023-12-10T22:59:38.550Z,10.28
2023-12-10T23:02:06.512Z,10.28
2023-12-10T23:04:35.925Z,10.28
2023-12-10T23:07:04.015Z,10.34
2023-12-10T23:09:31.974Z,10.26
2023-12-10T23:11:59.837Z,10.51
2023-12-10T23:14:27.742Z,10.54
2023-12-10T23:16:55.716Z,10.55
2023-12-10T23:19:23.652Z,10.69
2023-12-10T23:21:53.038Z,10.62
2023-12-10T23:24:20.968Z,10.90
2023-12-10T23:26:47.890Z,10.66
2023-12-10T23:29:16.135Z,10.37
2023-12-10T23:31:44.939Z,10.49
2023-12-10T23:34:12.850Z,10.55
2023-12-10T23:36:40.852Z,10.56
2023-12-10T23:39:10.183Z,10.91
2023-12-10T23:41:39.239Z,11.14
2023-12-10T23:44:08.970Z,10.92
2023-12-10T23:46:36.969Z,10.84
2023-12-10T23:49:04.991Z,10.79
2023-12-10T23:51:33.008Z,11.36
2023-12-10T23:54:00.950Z,11.05
2023-12-10T23:56:31.265Z,11.36
2023-12-10T23:58:59.172Z,11.36
